Time;durP1;ratioP1;P1;durP2;ratioP2;P2;SDS_P1;SDS_P2;PMS_P1;PMS_P2;Temp;Humidity;BMP_temperature;BMP_pressure;BME280_temperature;BME280_humidity;BME280_pressure;Samples;Min_cycle;Max_cycle;Signal;HPM_P1;HPM_P2
2021/06/22 00:02:02;;;;;;;7.20;4.63;;;17.20;79.40;;;17.42;66.41;100345.50;5030771;28;20099;-78
2021/06/22 00:04:29;;;;;;;9.05;3.88;;;17.20;79.20;;;17.35;66.01;100356.56;5055470;22;20052;-79
2021/06/22 00:06:56;;;;;;;9.00;4.30;;;17.20;79.10;;;17.33;66.08;100366.13;5048825;28;20063;-79
2021/06/22 00:09:24;;;;;;;7.63;4.20;;;17.20;78.70;;;17.32;65.81;100370.78;5050571;28;20098;-79
2021/06/22 00:11:51;;;;;;;10.80;4.45;;;17.20;78.60;;;17.31;65.98;100368.28;5050513;28;20135;-79
2021/06/22 00:14:20;;;;;;;9.73;4.50;;;17.20;78.90;;;17.34;65.90;100359.56;5040287;28;20583;-79
2021/06/22 00:16:47;;;;;;;7.35;4.35;;;17.20;78.70;;;17.33;65.86;100368.88;5030298;28;20048;-79
2021/06/22 00:19:15;;;;;;;7.32;4.13;;;17.20;78.70;;;17.33;65.90;100363.38;5030367;28;20073;-79
2021/06/22 00:21:42;;;;;;;7.65;4.25;;;17.10;78.30;;;17.27;65.94;100358.78;5030453;28;20095;-79
2021/06/22 00:24:09;;;;;;;11.65;4.10;;;17.20;79.00;;;17.28;66.07;100350.31;5030156;28;20120;-79
2021/06/22 00:26:37;;;;;;;10.27;4.00;;;17.10;78.50;;;17.26;66.12;100343.38;5030053;28;20045;-79
2021/06/22 00:29:04;;;;;;;8.30;3.65;;;17.10;78.80;;;17.26;65.38;100346.97;5030305;28;20583;-79
2021/06/22 00:31:33;;;;;;;10.80;3.40;;;17.10;78.10;;;17.28;64.40;100349.47;5030063;28;20111;-79
2021/06/22 00:34:00;;;;;;;9.95;4.03;;;17.10;77.00;;;17.27;64.69;100353.28;5030061;28;20041;-79
2021/06/22 00:36:27;;;;;;;8.05;3.35;;;17.10;77.60;;;17.24;64.94;100353.78;5029900;28;20128;-79
2021/06/22 00:38:55;;;;;;;10.50;3.40;;;17.10;77.30;;;17.25;64.36;100338.94;5030039;28;20630;-79
2021/06/22 00:41:22;;;;;;;8.20;3.20;;;17.10;77.20;;;17.20;64.22;100328.66;5029662;28;20037;-79
2021/06/22 00:43:50;;;;;;;8.75;3.42;;;17.10;76.90;;;17.16;64.43;100328.28;5028556;28;20519;-79
2021/06/22 00:46:18;;;;;;;8.15;3.47;;;17.00;77.30;;;17.16;64.63;100335.69;5028261;28;20103;-79
2021/06/22 00:48:46;;;;;;;11.85;3.40;;;17.00;77.50;;;17.17;64.64;100343.72;5029903;28;20508;-79
2021/06/22 00:51:14;;;;;;;8.95;3.33;;;17.00;77.50;;;17.16;64.48;100325.53;5028160;28;20081;-79
2021/06/22 00:53:41;;;;;;;7.80;2.90;;;17.00;77.80;;;17.15;64.77;100326.63;5028369;28;20045;-79
2021/06/22 00:56:09;;;;;;;7.57;3.30;;;17.00;77.40;;;17.15;64.34;100334.88;5028091;28;20127;-79
2021/06/22 00:58:37;;;;;;;9.68;2.88;;;17.00;77.30;;;17.16;64.42;100331.03;5028217;28;20520;-79
2021/06/22 01:01:05;;;;;;;8.75;2.97;;;17.00;77.10;;;17.14;64.05;100343.34;5028237;28;20096;-79
2021/06/22 01:03:33;;;;;;;10.85;3.03;;;17.00;77.20;;;17.16;64.28;100342.03;5027104;28;20528;-79
2021/06/22 01:06:10;;;;;;;8.10;3.08;;;16.90;77.00;;;17.17;63.88;100348.34;5029346;28;20045;-79
2021/06/22 01:08:40;;;;;;;9.00;2.90;;;17.00;77.30;;;17.17;64.19;100353.84;5028036;28;20060;-79
2021/06/22 01:11:08;;;;;;;6.85;2.95;;;16.90;77.20;;;17.15;64.28;100362.38;5027981;28;20050;-79
2021/06/22 01:13:35;;;;;;;9.35;3.20;;;16.90;77.40;;;17.13;64.37;100363.66;5029295;28;20293;-79
2021/06/22 01:16:03;;;;;;;11.50;3.45;;;16.90;77.80;;;17.10;64.28;100359.47;5027708;28;20580;-79
2021/06/22 01:18:32;;;;;;;10.80;3.42;;;16.90;77.20;;;17.11;64.34;100358.38;5026294;28;20069;-79
2021/06/22 01:21:19;;;;;;;11.73;3.47;;;16.90;77.70;;;17.11;64.43;100355.63;5029304;28;20533;-79
2021/06/22 01:23:55;;;;;;;10.77;3.28;;;16.80;77.90;;;17.12;64.64;100357.31;5011377;28;20175;-79
2021/06/22 01:26:23;;;;;;;11.25;3.17;;;16.80;78.40;;;17.11;64.83;100355.63;5011049;28;20060;-79
2021/06/22 01:28:51;;;;;;;13.23;3.58;;;16.80;78.10;;;17.06;65.25;100366.50;5029080;28;20159;-79
2021/06/22 01:31:20;;;;;;;8.73;3.30;;;16.80;78.60;;;17.05;65.25;100372.22;5028971;28;20122;-79
2021/06/22 01:33:49;;;;;;;9.90;3.00;;;16.80;78.70;;;17.04;65.23;100365.88;5011182;28;20042;-79
2021/06/22 01:36:22;;;;;;;9.43;3.53;;;16.80;78.20;;;17.06;65.05;100361.00;5010927;28;20057;-79
2021/06/22 01:38:51;;;;;;;7.93;3.07;;;16.80;78.70;;;17.02;65.20;100354.28;5011289;28;20049;-79
2021/06/22 01:41:19;;;;;;;11.50;3.70;;;16.80;78.80;;;16.96;65.87;100341.44;5010791;28;20310;-79
2021/06/22 01:43:48;;;;;;;6.75;3.20;;;16.80;79.20;;;16.95;66.21;100339.78;5010913;28;20060;-79
2021/06/22 01:46:16;;;;;;;11.98;3.70;;;16.80;79.40;;;16.91;66.35;100339.41;5010920;28;20049;-79
2021/06/22 01:48:43;;;;;;;6.80;3.17;;;16.80;79.60;;;16.90;66.56;100331.38;5010951;28;20042;-80
2021/06/22 01:51:12;;;;;;;9.27;3.20;;;16.80;79.80;;;16.88;66.30;100328.03;5011046;28;20502;-79
2021/06/22 01:53:42;;;;;;;9.70;3.30;;;16.70;79.40;;;16.90;66.57;100339.63;5010632;28;20073;-79
2021/06/22 01:56:12;;;;;;;;;;;16.80;79.70;;;16.86;66.96;100341.16;5011207;28;20497;-79
2021/06/22 01:58:44;;;;;;;9.90;3.38;;;16.80;80.10;;;16.87;66.67;100337.31;5010922;28;19925;-80
2021/06/22 02:01:32;;;;;;;8.70;3.22;;;16.80;79.50;;;16.86;66.73;100336.50;4987929;28;20053;-79
2021/06/22 02:04:08;;;;;;;12.05;3.33;;;16.70;80.10;;;16.80;67.09;100338.22;5010510;28;20583;-79
2021/06/22 02:06:36;;;;;;;8.20;3.28;;;16.70;80.30;;;16.79;67.43;100336.56;5028482;28;20045;-79
2021/06/22 02:09:42;;;;;;;12.10;3.28;;;16.70;80.70;;;16.81;67.02;100339.06;4967124;28;20047;-79
2021/06/22 02:12:16;;;;;;;9.65;3.70;;;16.70;80.20;;;16.78;67.29;100340.38;4967342;28;20054;-79
2021/06/22 02:14:43;;;;;;;9.88;3.55;;;16.60;79.90;;;16.77;66.61;100344.19;4982171;28;20132;-79
2021/06/22 02:17:11;;;;;;;8.27;3.42;;;16.60;79.40;;;16.78;66.62;100345.84;5047550;28;20700;-79
2021/06/22 02:19:39;;;;;;;8.90;3.25;;;16.50;79.90;;;16.74;66.79;100349.31;5014600;28;20041;-79
2021/06/22 02:22:13;;;;;;;9.13;3.35;;;16.50;80.40;;;16.74;66.80;100344.66;5014561;28;20071;-80
2021/06/22 02:24:51;;;;;;;12.77;3.53;;;16.50;80.10;;;16.75;66.76;100339.97;5047445;28;20060;-79
2021/06/22 02:27:27;;;;;;;12.77;3.33;;;16.50;80.00;;;16.77;66.49;100344.19;5032203;28;20042;-80
2021/06/22 02:29:57;;;;;;;10.52;3.25;;;16.50;79.80;;;16.77;66.41;100344.19;5047524;28;20055;-79
2021/06/22 02:32:27;;;;;;;7.47;3.28;;;16.50;80.00;;;16.76;66.10;100347.16;5014186;28;20115;-79
2021/06/22 02:34:59;;;;;;;11.00;3.53;;;16.50;79.60;;;16.74;66.20;100349.31;5047430;28;20115;-79
2021/06/22 02:37:29;;;;;;;9.75;3.50;;;16.50;80.00;;;16.74;66.19;100358.38;5046970;28;20136;-79
2021/06/22 02:39:58;;;;;;;9.52;3.10;;;16.40;80.10;;;16.69;66.50;100357.38;5047363;28;20053;-80
2021/06/22 02:42:26;;;;;;;9.48;3.35;;;16.40;80.20;;;16.71;66.58;100367.06;5047339;28;20060;-79
2021/06/22 02:44:56;;;;;;;10.15;3.35;;;16.40;80.40;;;16.72;66.76;100365.19;5014225;28;20197;-79
2021/06/22 02:47:25;;;;;;;11.18;3.60;;;16.40;80.50;;;16.70;66.56;100359.91;5046946;28;20045;-79
2021/06/22 02:49:53;;;;;;;12.85;4.13;;;16.30;80.30;;;16.70;66.39;100364.59;5047311;28;20045;-79
2021/06/22 02:52:20;;;;;;;12.18;3.88;;;16.30;80.60;;;16.63;67.08;100361.88;5031984;28;20123;-79
2021/06/22 02:54:48;;;;;;;12.25;3.60;;;16.40;81.20;;;16.60;67.01;100356.84;5014080;28;20049;-79
2021/06/22 02:57:17;;;;;;;12.70;3.50;;;16.30;80.70;;;16.62;66.92;100365.72;5031931;28;20048;-79
2021/06/22 02:59:45;;;;;;;10.98;3.78;;;16.30;80.60;;;16.63;66.74;100370.13;5047043;28;20046;-79
2021/06/22 03:02:13;;;;;;;11.48;3.70;;;16.30;80.90;;;16.63;66.72;100370.13;5013909;28;20060;-79
2021/06/22 03:04:41;;;;;;;13.60;4.25;;;16.30;80.60;;;16.61;66.56;100373.09;5046558;28;20049;-79
2021/06/22 03:07:09;;;;;;;10.05;3.75;;;16.20;80.90;;;16.59;66.43;100374.41;5046586;28;20531;-79
2021/06/22 03:09:37;;;;;;;10.35;3.83;;;16.10;80.60;;;16.57;66.45;100377.38;5013787;28;20404;-79
2021/06/22 03:12:09;;;;;;;13.05;4.05;;;16.10;81.10;;;16.55;66.46;100381.44;5046677;28;20469;-79
2021/06/22 03:14:57;;;;;;;15.23;4.10;;;16.10;81.30;;;16.53;66.88;100378.06;5028143;28;20133;-79
2021/06/22 03:17:29;;;;;;;11.90;4.00;;;16.10;81.50;;;16.53;66.86;100378.06;5013287;28;20056;-79
2021/06/22 03:19:57;;;;;;;13.68;4.50;;;16.10;81.20;;;16.51;66.61;100374.72;5013526;28;20219;-79
2021/06/22 03:22:26;;;;;;;12.88;4.05;;;16.00;81.00;;;16.49;66.73;100376.84;5013501;28;20055;-79
2021/06/22 03:24:54;;;;;;;12.90;4.32;;;16.00;81.30;;;16.49;66.74;100372.19;5013372;28;20049;-79
2021/06/22 03:27:22;;;;;;;10.98;3.83;;;16.00;81.20;;;16.49;66.78;100374.94;5011946;28;20421;-79
2021/06/22 03:30:11;;;;;;;23.45;4.63;;;16.00;81.60;;;16.49;66.48;100379.59;5031222;28;20060;-79
2021/06/22 03:32:43;;;;;;;10.95;3.80;;;16.00;81.10;;;16.46;66.50;100382.78;5013253;28;20041;-79
2021/06/22 03:35:12;;;;;;;10.40;3.73;;;15.90;81.60;;;16.39;66.79;100378.22;5031163;28;20045;-79
2021/06/22 03:37:39;;;;;;;11.80;3.80;;;15.90;81.80;;;16.36;66.90;100392.38;5030693;28;20127;-80
2021/06/22 03:40:09;;;;;;;15.68;4.25;;;15.90;81.70;;;16.34;66.78;100389.03;5013061;28;20073;-79
2021/06/22 03:42:40;;;;;;;11.57;4.20;;;15.90;81.60;;;16.34;67.02;100400.00;5013100;28;20049;-79
2021/06/22 03:45:11;;;;;;;13.18;3.90;;;15.90;81.60;;;16.37;66.66;100395.97;5013033;28;20071;-79
2021/06/22 03:47:42;;;;;;;13.73;4.35;;;15.80;81.50;;;16.35;66.84;100398.09;5012657;28;20140;-79
2021/06/22 03:50:11;;;;;;;10.98;3.90;;;15.80;81.60;;;16.37;66.79;100399.56;5030949;28;20042;-79
2021/06/22 03:52:38;;;;;;;16.63;5.13;;;15.80;81.80;;;16.35;67.06;100395.34;5012767;28;20080;-79
2021/06/22 03:57:56;;;;;;;13.98;3.88;;;15.90;82.00;;;16.33;67.13;100389.25;5012433;28;20057;-79
2021/06/22 04:00:35;;;;;;;11.63;3.83;;;15.90;82.00;;;16.27;67.47;100399.22;5012808;28;20049;-79
2021/06/22 04:03:13;;;;;;;11.30;4.75;;;15.90;82.00;;;16.27;67.45;100399.22;5012585;28;20050;-79
2021/06/22 04:05:45;;;;;;;13.32;4.72;;;15.90;81.70;;;16.29;67.46;100405.34;5012629;28;20064;-79
2021/06/22 04:08:31;;;;;;;14.98;4.68;;;15.90;81.90;;;16.32;67.21;100412.31;5012600;28;20055;-79
2021/06/22 04:11:03;;;;;;;13.20;4.75;;;15.90;81.90;;;16.31;67.41;100411.44;5012629;28;20045;-79
2021/06/22 04:13:32;;;;;;;13.80;5.07;;;15.90;81.90;;;16.23;67.71;100409.81;5012333;28;20100;-79
2021/06/22 04:16:02;;;;;;;13.50;5.15;;;15.90;82.40;;;16.23;67.81;100409.81;5012213;28;20150;-79
2021/06/22 04:18:29;;;;;;;14.00;5.10;;;15.90;82.10;;;16.25;68.22;100406.03;5030430;28;20045;-79
2021/06/22 04:21:02;;;;;;;16.13;5.97;;;15.90;82.60;;;16.29;67.91;100405.34;5012354;28;20056;-79
2021/06/22 04:23:37;;;;;;;16.55;5.40;;;16.00;82.10;;;16.30;68.00;100419.94;5012239;28;20049;-80
2021/06/22 04:26:04;;;;;;;12.10;5.18;;;16.00;82.00;;;16.27;68.14;100417.63;5012017;28;20053;-79
2021/06/22 04:28:32;;;;;;;16.63;6.30;;;15.90;82.30;;;16.27;67.93;100429.44;5012207;28;20509;-79
2021/06/22 04:31:01;;;;;;;14.00;5.05;;;15.90;82.30;;;16.25;68.26;100433.47;5029843;28;20124;-79
2021/06/22 04:33:28;;;;;;;13.57;5.00;;;16.00;82.50;;;16.24;68.36;100438.13;5029951;28;20409;-79
2021/06/22 04:35:57;;;;;;;11.35;4.63;;;16.00;82.30;;;16.29;68.32;100441.03;5012032;28;20042;-79
2021/06/22 04:38:24;;;;;;;14.10;5.18;;;15.90;82.50;;;16.26;68.58;100424.16;5029572;28;20124;-79
2021/06/22 04:40:51;;;;;;;14.55;5.05;;;16.00;82.70;;;16.26;68.41;100425.03;5029925;28;20402;-79
2021/06/22 04:43:18;;;;;;;14.65;5.72;;;16.00;82.60;;;16.28;68.17;100420.16;5011932;28;20119;-80
2021/06/22 04:45:46;;;;;;;13.98;5.95;;;16.00;82.30;;;16.29;68.32;100421.81;5011912;28;20053;-79
2021/06/22 04:48:14;;;;;;;12.35;5.38;;;16.00;82.40;;;16.30;68.30;100420.75;5029388;28;20099;-79
2021/06/22 04:50:42;;;;;;;16.45;5.18;;;16.00;82.40;;;16.28;68.34;100417.41;5029659;28;20066;-83
2021/06/22 04:53:09;;;;;;;16.50;5.20;;;16.00;82.30;;;16.29;68.15;100419.06;5011363;28;20580;-83
2021/06/22 04:55:36;;;;;;;13.57;5.63;;;16.00;82.30;;;16.20;68.34;100421.28;5011774;28;20096;-78
2021/06/22 04:58:05;;;;;;;14.38;5.43;;;16.00;82.40;;;16.19;68.39;100421.47;5029368;28;20120;-81
2021/06/22 05:00:33;;;;;;;14.80;5.40;;;15.90;82.20;;;16.24;68.50;100421.66;5029472;28;20099;-81
2021/06/22 05:03:01;;;;;;;15.15;5.20;;;16.00;82.50;;;16.27;68.34;100432.19;5029550;28;20042;-83
2021/06/22 05:05:30;;;;;;;15.10;5.32;;;15.90;82.50;;;16.24;68.20;100429.91;5029085;28;20124;-83
2021/06/22 05:07:57;;;;;;;12.75;5.13;;;16.00;82.40;;;16.24;68.36;100427.16;5029078;28;20041;-81
2021/06/22 05:10:24;;;;;;;14.80;4.95;;;16.00;82.30;;;16.28;68.38;100424.78;5026087;28;20037;-80
2021/06/22 05:12:51;;;;;;;12.57;5.63;;;16.00;82.30;;;16.28;68.71;100420.16;5029206;28;20130;-81
2021/06/22 05:15:20;;;;;;;17.58;6.00;;;16.10;82.70;;;16.29;68.60;100419.06;5029220;28;20551;-81
2021/06/22 05:17:47;;;;;;;10.48;4.72;;;16.10;81.90;;;16.31;68.59;100416.94;5010992;28;20053;-81
2021/06/22 05:20:15;;;;;;;11.68;5.30;;;16.20;82.10;;;16.32;68.55;100417.78;5028843;28;20042;-81
2021/06/22 05:22:43;;;;;;;13.02;4.75;;;16.30;81.50;;;16.31;68.50;100427.09;5029104;28;20045;-81
2021/06/22 05:25:12;;;;;;;11.85;4.90;;;16.30;81.40;;;16.32;68.49;100440.59;5029012;28;20049;-81
2021/06/22 05:27:39;;;;;;;11.57;4.43;;;16.40;81.00;;;16.35;68.08;100433.81;5028599;28;20041;-83
2021/06/22 05:30:08;;;;;;;11.27;4.88;;;16.40;80.40;;;16.35;68.46;100445.63;5044761;28;20139;-81
2021/06/22 05:32:35;;;;;;;14.88;5.38;;;16.60;80.50;;;16.38;68.27;100447.94;5048264;28;20125;-81
2021/06/22 05:35:02;;;;;;;17.00;5.28;;;16.60;79.60;;;16.43;68.02;100447.28;5048538;28;20155;-81
2021/06/22 05:37:30;;;;;;;16.45;5.03;;;16.70;79.30;;;16.46;68.28;100446.81;5047947;28;20123;-83
2021/06/22 05:39:58;;;;;;;14.18;4.85;;;16.90;79.20;;;16.52;68.53;100437.66;5048712;28;20053;-81
2021/06/22 05:42:26;;;;;;;10.30;4.63;;;17.10;78.90;;;16.57;68.33;100426.00;5048339;28;20051;-81
2021/06/22 05:44:53;;;;;;;11.20;4.72;;;17.30;78.00;;;16.66;68.18;100440.28;5048313;28;20040;-81
2021/06/22 05:47:20;;;;;;;14.75;5.18;;;17.60;76.70;;;16.70;67.84;100428.63;5048207;28;20103;-82
2021/06/22 05:49:48;;;;;;;13.70;5.13;;;17.70;76.10;;;16.77;67.78;100437.63;5047824;28;20783;-81
2021/06/22 05:52:15;;;;;;;11.88;4.75;;;17.90;75.20;;;16.81;67.51;100446.25;5048429;28;20045;-80
2021/06/22 05:54:42;;;;;;;11.95;4.72;;;18.00;75.00;;;16.86;67.44;100451.09;5048163;28;20048;-81
2021/06/22 05:57:11;;;;;;;14.23;5.10;;;18.40;74.20;;;16.99;67.94;100459.22;5048074;28;20554;-81
2021/06/22 05:59:38;;;;;;;12.15;4.45;;;19.10;72.50;;;17.11;66.40;100453.78;5048028;28;20056;-80
2021/06/22 06:02:05;;;;;;;13.02;4.55;;;19.40;68.90;;;17.14;65.20;100450.59;5048332;28;20036;-82
2021/06/22 06:04:33;;;;;;;15.82;5.10;;;19.20;68.50;;;17.17;65.17;100459.22;5062284;22;20049;-76
2021/06/22 06:07:00;;;;;;;13.90;4.90;;;18.80;69.40;;;17.19;64.87;100451.59;5047662;28;20068;-77
2021/06/22 06:09:28;;;;;;;15.65;5.13;;;18.40;70.70;;;17.24;64.64;100452.78;5030331;28;20139;-78
2021/06/22 06:11:55;;;;;;;15.07;5.72;;;18.10;72.30;;;17.20;65.22;100463.41;5048523;28;20048;-78
2021/06/22 06:14:24;;;;;;;12.57;5.15;;;18.00;73.60;;;17.19;64.92;100451.59;5036295;28;20045;-80
2021/06/22 06:16:51;;;;;;;11.02;4.68;;;17.90;73.40;;;17.18;64.56;100460.88;5026862;28;20041;-80
2021/06/22 06:19:19;;;;;;;14.70;4.68;;;17.70;74.00;;;17.16;64.49;100462.19;5028059;28;20060;-79
2021/06/22 06:21:46;;;;;;;15.05;4.50;;;17.60;74.20;;;17.16;64.64;100465.78;5008727;28;20125;-80
2021/06/22 06:24:15;;;;;;;17.23;4.95;;;17.60;74.20;;;17.11;64.37;100465.63;5028054;28;20497;-80
2021/06/22 06:26:51;;;;;;;13.15;5.05;;;17.50;74.30;;;17.11;64.69;100465.63;5027869;28;20041;-80
2021/06/22 06:29:25;;;;;;;11.73;4.85;;;17.40;75.10;;;17.11;64.61;100475.78;5028194;28;20046;-80
2021/06/22 06:31:53;;;;;;;12.60;4.75;;;17.40;75.30;;;17.06;64.44;100476.47;5010367;28;20135;-79
2021/06/22 06:34:21;;;;;;;10.00;4.50;;;17.30;75.30;;;17.09;64.55;100472.44;5026654;28;21640;-79
2021/06/22 06:36:48;;;;;;;12.80;5.05;;;17.30;75.50;;;17.08;64.60;100466.09;5027783;28;20322;-83
2021/06/22 06:39:16;;;;;;;12.88;5.47;;;17.20;75.20;;;17.08;64.99;100471.59;5028161;28;20061;-80
2021/06/22 06:41:43;;;;;;;12.13;5.38;;;17.30;75.80;;;17.05;64.64;100474.78;5027927;28;20076;-80
2021/06/22 06:44:10;;;;;;;15.63;4.90;;;17.30;75.60;;;17.00;64.75;100472.72;5010103;28;20046;-79
2021/06/22 06:46:37;;;;;;;13.70;4.47;;;17.30;75.50;;;16.98;64.61;100474.00;5027200;28;20041;-79
2021/06/22 06:49:06;;;;;;;17.15;4.10;;;17.30;74.50;;;17.02;64.44;100478.00;5028028;28;20124;-80
2021/06/22 06:51:33;;;;;;;11.35;4.45;;;17.40;74.60;;;17.04;64.26;100484.13;5009957;28;20116;-80
2021/06/22 06:54:01;;;;;;;11.52;4.55;;;17.50;74.60;;;17.06;63.74;100473.72;5010037;28;20045;-80
2021/06/22 06:56:28;;;;;;;11.40;4.57;;;17.40;73.10;;;17.01;64.10;100476.31;5027390;28;20077;-79
2021/06/22 06:58:55;;;;;;;11.85;5.30;;;17.50;74.20;;;17.07;63.97;100480.91;5028063;28;20092;-80
2021/06/22 07:01:22;;;;;;;11.30;4.47;;;17.50;73.40;;;17.05;63.72;100488.53;5028677;28;20598;-80
2021/06/22 07:03:50;;;;;;;13.77;5.03;;;17.50;74.10;;;17.07;63.24;100486.41;5031520;28;20055;-82
2021/06/22 07:06:18;;;;;;;9.77;4.55;;;17.30;73.70;;;17.08;63.33;100481.75;5031465;28;20485;-81
2021/06/22 07:08:46;;;;;;;12.18;4.90;;;17.30;74.10;;;17.07;63.19;100486.41;5030972;28;20120;-80
2021/06/22 07:11:14;;;;;;;12.70;4.38;;;17.30;74.10;;;17.06;63.35;100484.72;5030849;28;20057;-79
2021/06/22 07:13:41;;;;;;;12.68;4.68;;;17.20;74.30;;;17.06;63.79;100487.47;5029931;28;20041;-79
2021/06/22 07:16:09;;;;;;;11.35;4.57;;;17.20;75.00;;;17.03;63.77;100487.09;5029381;28;20045;-79
2021/06/22 07:18:36;;;;;;;10.85;4.57;;;17.20;74.70;;;17.02;63.87;100486.25;5030828;28;20540;-78
2021/06/22 07:21:03;;;;;;;10.82;3.88;;;17.20;75.10;;;17.05;64.15;100484.94;5030986;28;20463;-78
2021/06/22 07:23:32;;;;;;;12.68;4.25;;;17.20;75.40;;;17.07;64.39;100486.41;5034465;28;20103;-80
2021/06/22 07:25:59;;;;;;;14.25;4.88;;;17.20;75.10;;;17.05;63.43;100493.19;5050725;28;20799;-82
2021/06/22 07:28:27;;;;;;;12.00;4.55;;;17.20;74.20;;;17.00;64.06;100485.63;5050702;28;20037;-80
2021/06/22 07:30:54;;;;;;;9.82;4.18;;;17.20;75.20;;;17.01;63.93;100490.06;5050855;28;20049;-79
2021/06/22 07:33:21;;;;;;;12.18;4.97;;;17.20;75.00;;;17.03;64.41;100490.69;5050651;28;20127;-79
2021/06/22 07:35:48;;;;;;;11.52;6.60;;;17.20;75.50;;;17.02;64.97;100494.50;5032734;28;20804;-81
2021/06/22 07:38:16;;;;;;;10.50;4.75;;;17.30;75.90;;;17.05;65.13;100498.69;5050544;28;20041;-79
2021/06/22 07:40:44;;;;;;;13.15;4.95;;;17.40;75.90;;;17.07;65.01;100508.41;5050807;28;20044;-79
2021/06/22 07:43:12;;;;;;;13.68;5.05;;;17.40;75.30;;;17.08;64.55;100517.50;5050725;28;20099;-79
2021/06/22 07:45:39;;;;;;;11.15;4.45;;;17.40;74.80;;;17.10;64.41;100509.88;5050505;28;20780;-80
2021/06/22 07:48:08;;;;;;;10.32;4.75;;;17.40;74.70;;;17.12;64.26;100505.81;5050460;28;20076;-79
2021/06/22 07:50:36;;;;;;;13.57;4.43;;;17.40;74.30;;;17.13;64.30;100507.47;5012684;28;20116;-79
2021/06/22 07:53:04;;;;;;;13.55;4.78;;;17.50;74.60;;;17.14;64.79;100511.91;5010918;28;20057;-79
2021/06/22 07:55:31;;;;;;;11.38;4.47;;;17.50;75.10;;;17.11;65.16;100504.13;5010827;28;20046;-79
2021/06/22 07:58:00;;;;;;;12.15;4.90;;;17.50;75.20;;;17.09;64.95;100503.50;5010608;28;20073;-80
2021/06/22 08:00:42;;;;;;;15.55;6.93;;;17.60;74.80;;;17.11;65.04;100509.63;5021912;28;20409;-79
2021/06/22 08:03:10;;;;;;;15.05;5.40;;;17.60;74.90;;;17.12;65.81;100503.06;5030642;28;20508;-79
2021/06/22 08:05:38;;;;;;;12.20;4.88;;;17.70;75.50;;;17.14;65.38;100502.84;5030162;28;20049;-82
2021/06/22 08:08:08;;;;;;;13.23;4.72;;;17.70;74.50;;;17.17;64.81;100497.72;5029919;28;20045;-78
2021/06/22 08:10:37;;;;;;;10.45;4.32;;;17.70;74.40;;;17.23;64.69;100508.84;5011926;28;20049;-79
2021/06/22 08:13:06;;;;;;;15.07;5.15;;;17.70;74.30;;;17.24;64.81;100525.13;5028043;28;20053;-80
2021/06/22 08:15:34;;;;;;;13.57;5.47;;;17.90;73.70;;;17.24;63.96;100508.63;5029727;28;20087;-80
2021/06/22 08:18:01;;;;;;;11.77;4.85;;;17.90;72.70;;;17.27;63.42;100501.81;5029797;28;20046;-80
2021/06/22 08:20:29;;;;;;;13.85;4.72;;;17.90;72.60;;;17.28;63.38;100498.03;5030002;28;20121;-80
2021/06/22 08:22:56;;;;;;;10.35;4.60;;;17.90;72.00;;;17.31;63.24;100495.66;5012051;28;20045;-79
2021/06/22 08:25:27;;;;;;;11.95;5.35;;;18.00;71.70;;;17.34;63.72;100499.84;5029824;28;20095;-80
2021/06/22 08:27:55;;;;;;;9.50;4.78;;;18.20;71.80;;;17.38;63.83;100499.16;5029668;28;20516;-80
2021/06/22 08:30:27;;;;;;;13.25;4.93;;;18.30;71.70;;;17.41;64.14;100497.84;5029828;28;20077;-80
2021/06/22 08:32:55;;;;;;;10.55;4.68;;;18.40;72.00;;;17.44;63.80;100507.56;5029873;28;20045;-80
2021/06/22 08:35:24;;;;;;;9.35;4.25;;;18.40;70.90;;;17.45;63.11;100498.25;5029544;28;20046;-81
2021/06/22 08:37:52;;;;;;;7.82;4.15;;;18.30;70.90;;;17.43;62.31;100500.38;5029265;28;20129;-80
2021/06/22 08:40:20;;;;;;;10.23;3.92;;;18.20;69.90;;;17.45;63.24;100518.34;5029940;28;20053;-81
2021/06/22 08:42:47;;;;;;;8.48;3.75;;;18.30;71.60;;;17.47;62.98;100501.59;5029496;28;20143;-80
2021/06/22 08:45:18;;;;;;;11.38;4.07;;;18.30;71.10;;;17.49;63.45;100505.78;5029488;28;20128;-83
2021/06/22 08:47:47;;;;;;;11.82;4.60;;;18.40;71.10;;;17.47;63.18;100507.09;5011412;28;20053;-82
2021/06/22 08:50:18;;;;;;;11.93;4.10;;;18.30;70.50;;;17.49;62.99;100505.78;5011414;28;20057;-80
2021/06/22 08:52:46;;;;;;;11.98;4.25;;;18.30;70.50;;;17.49;63.06;100505.78;5010982;28;20045;-80
2021/06/22 08:55:26;;;;;;;11.43;4.22;;;18.20;71.60;;;17.48;64.18;100515.13;5028588;28;20088;-80
2021/06/22 08:57:56;;;;;;;9.38;3.72;;;18.30;72.40;;;17.51;64.09;100514.66;5028725;28;20038;-80
2021/06/22 09:00:23;;;;;;;10.88;4.43;;;18.30;72.40;;;17.54;63.50;100508.69;5028819;28;20038;-80
2021/06/22 09:03:05;;;;;;;10.50;4.10;;;18.40;71.10;;;17.55;63.20;100510.41;5029230;28;20045;-80
2021/06/22 09:05:33;;;;;;;10.05;4.03;;;18.30;71.00;;;17.57;63.10;100508.25;5028944;28;20048;-80
2021/06/22 09:08:00;;;;;;;10.93;4.00;;;18.30;71.50;;;17.54;63.00;100508.69;5029013;28;20076;-80
2021/06/22 09:10:31;;;;;;;8.85;3.53;;;18.20;71.50;;;17.55;62.63;100507.66;5028951;28;20560;-81
2021/06/22 09:13:00;;;;;;;13.07;4.30;;;18.20;71.20;;;17.57;62.65;100512.91;5029161;28;20091;-80
2021/06/22 09:15:32;;;;;;;13.88;4.80;;;18.20;71.20;;;17.58;62.83;100507.16;5027910;28;20053;-80
2021/06/22 09:18:01;;;;;;;9.52;4.63;;;18.20;70.80;;;17.58;62.32;100504.41;5010325;28;20049;-80
2021/06/22 09:20:41;;;;;;;11.70;4.63;;;18.20;70.50;;;17.59;61.71;100497.84;5011278;28;20044;-80
2021/06/22 09:23:15;;;;;;;10.27;4.65;;;18.20;70.00;;;17.60;62.19;100490.44;5010971;28;20049;-80
2021/06/22 09:25:43;;;;;;;14.85;4.53;;;18.30;70.20;;;17.62;62.27;100487.44;5009962;28;20053;-80
2021/06/22 09:28:11;;;;;;;15.90;4.22;;;18.40;70.80;;;17.64;62.19;100493.56;5028672;28;20463;-81
2021/06/22 09:30:52;;;;;;;10.02;3.97;;;18.40;69.80;;;17.62;61.47;100487.44;5028684;28;20040;-80
2021/06/22 09:33:26;;;;;;;11.05;3.95;;;18.20;70.20;;;17.61;61.86;100494.88;5028841;28;20087;-80
2021/06/22 09:36:17;;;;;;;9.82;3.70;;;18.10;70.90;;;17.61;61.93;100496.75;5028409;28;20043;-80
2021/06/22 09:38:48;;;;;;;8.80;3.80;;;18.10;71.40;;;17.62;62.29;100495.72;5026563;28;20053;-80
2021/06/22 09:41:22;;;;;;;;;;;18.20;71.40;;;17.60;62.05;100515.19;5029114;28;20053;-80
2021/06/22 09:43:53;;;;;;;9.50;3.55;;;18.10;70.80;;;17.59;61.92;100517.13;5028376;28;19928;-80
2021/06/22 09:46:37;;;;;;;8.75;3.70;;;18.10;71.20;;;17.59;61.88;100516.25;5026927;28;20131;-80
2021/06/22 09:49:09;;;;;;;9.20;3.67;;;18.20;70.90;;;17.58;62.27;100507.16;5010570;28;20556;-80
2021/06/22 09:51:45;;;;;;;12.27;3.35;;;18.20;71.00;;;17.61;61.61;100510.53;5028460;28;20041;-81
2021/06/22 09:54:19;;;;;;;10.40;3.90;;;18.30;70.40;;;17.62;62.02;100515.81;5028332;28;20096;-81
2021/06/22 09:57:03;;;;;;;9.68;3.70;;;18.30;70.50;;;17.65;62.52;100520.00;5028130;28;20099;-81
2021/06/22 09:59:33;;;;;;;12.43;3.90;;;18.30;71.10;;;17.66;62.68;100519.75;5028488;28;20089;-80
2021/06/22 10:02:10;;;;;;;13.07;3.67;;;18.40;71.00;;;17.65;62.01;100509.84;5028035;28;20049;-81
2021/06/22 10:04:43;;;;;;;11.63;3.20;;;18.40;70.40;;;17.65;62.20;100515.34;5028329;28;20449;-80
2021/06/22 10:07:13;;;;;;;9.32;3.60;;;18.40;70.60;;;17.67;62.47;100521.47;5027920;28;20092;-80
2021/06/22 10:09:40;;;;;;;10.02;3.50;;;18.40;71.00;;;17.69;62.34;100522.06;5027900;28;20054;-80
2021/06/22 10:12:10;;;;;;;7.72;3.50;;;18.40;70.60;;;17.71;62.55;100524.59;5028128;28;20061;-80
2021/06/22 10:14:40;;;;;;;8.52;3.30;;;18.40;71.10;;;17.72;62.99;100526.25;5028111;28;20121;-80
2021/06/22 10:17:10;;;;;;;11.98;3.72;;;18.40;71.50;;;17.72;62.68;100531.75;5027692;28;20390;-80
2021/06/22 10:19:39;;;;;;;9.57;3.92;;;18.50;70.70;;;17.71;63.07;100525.44;5028122;28;20046;-81
2021/06/22 10:22:07;;;;;;;11.82;3.63;;;18.50;71.50;;;17.73;62.07;100527.94;5027971;28;20071;-80